Pretoria, South Africa
Current Conditions -  °F | °C
As of 8:00 PM on Friday 24 Oct 2014 (Local Time) from FALA Reporting Station
Clear Clear  
Wind Chill: 72°   Ceiling: Unl
Heat Index: 72°   Visibility: 6mi
Dew Point: 43°   Wind: 12mph
Humidity: 35%   Direction: 110°ESE
Pressure: 30.12"   Gusts: NA
Location:  25.73°S, 28.22°E
Report Text: FALA 241800Z 11010KT CAVOK 22/06 Q1020 NOSIG
Loading
Personal Weather Stations






























Interactive Weather Map
Tropical Storm Tracking
New forecast layout! Learn more

10-Day Weather Forecast

Advertisements
Track Severe Weather on mobile